createdAt,value
2024-01-29T00:00:25.387Z,5.25
2024-01-29T00:01:25.381Z,5.36
2024-01-29T00:02:25.323Z,5.30
2024-01-29T00:03:25.475Z,5.35
2024-01-29T00:04:25.694Z,5.36
2024-01-29T00:05:25.392Z,5.31
2024-01-29T00:06:25.554Z,5.28
2024-01-29T00:07:25.437Z,5.33
2024-01-29T00:08:25.433Z,5.28
2024-01-29T00:09:25.463Z,5.42
2024-01-29T00:10:25.467Z,5.43
2024-01-29T00:11:25.562Z,5.43
2024-01-29T00:12:25.571Z,5.40
2024-01-29T00:13:25.521Z,5.45
2024-01-29T00:14:25.539Z,5.46
2024-01-29T00:15:25.574Z,5.49
2024-01-29T00:16:25.571Z,5.51
2024-01-29T00:17:25.618Z,5.49
2024-01-29T00:18:25.660Z,5.42
2024-01-29T00:19:25.802Z,5.46
2024-01-29T00:20:25.638Z,5.51
2024-01-29T00:21:25.673Z,5.53
2024-01-29T00:22:25.710Z,5.56
2024-01-29T00:23:25.719Z,5.49
2024-01-29T00:24:25.737Z,5.54
2024-01-29T00:25:25.734Z,5.53
2024-01-29T00:26:25.754Z,5.56
2024-01-29T00:27:25.788Z,5.49
2024-01-29T00:28:25.791Z,5.64
2024-01-29T00:29:25.819Z,5.60
2024-01-29T00:30:25.839Z,5.58
2024-01-29T00:31:25.922Z,5.71
2024-01-29T00:32:25.936Z,5.72
2024-01-29T00:33:26.049Z,5.74
2024-01-29T00:34:25.947Z,5.72
2024-01-29T00:35:25.911Z,5.76
2024-01-29T00:36:25.961Z,5.72
2024-01-29T00:37:25.949Z,5.76
2024-01-29T00:38:25.970Z,5.65
2024-01-29T00:39:26.033Z,5.72
2024-01-29T00:40:26.005Z,5.61
2024-01-29T00:41:26.051Z,5.63
2024-01-29T00:42:26.055Z,5.63
2024-01-29T00:43:26.060Z,5.65
2024-01-29T00:44:26.091Z,5.65
2024-01-29T00:45:26.118Z,5.58
2024-01-29T00:46:26.113Z,5.61
2024-01-29T00:47:26.180Z,5.57
2024-01-29T00:48:26.214Z,5.54
2024-01-29T00:49:26.248Z,5.53
2024-01-29T00:50:26.193Z,5.56
2024-01-29T00:51:26.230Z,5.51
2024-01-29T00:52:26.228Z,5.56
2024-01-29T00:53:26.244Z,5.60
2024-01-29T00:54:26.290Z,5.57
2024-01-29T00:55:26.293Z,5.57
2024-01-29T00:56:26.291Z,5.49
2024-01-29T00:57:26.340Z,5.53
2024-01-29T00:58:26.345Z,5.43
2024-01-29T00:59:26.347Z,5.46
2024-01-29T01:00:26.383Z,5.36
2024-01-29T01:01:26.463Z,5.36
2024-01-29T01:02:26.401Z,5.31
2024-01-29T01:03:26.498Z,5.27
2024-01-29T01:04:26.513Z,5.27
2024-01-29T01:05:26.599Z,5.39
2024-01-29T01:06:26.519Z,5.42
2024-01-29T01:07:26.490Z,5.39
2024-01-29T01:08:26.511Z,5.20
2024-01-29T01:09:26.545Z,5.22
2024-01-29T01:10:26.545Z,5.21
2024-01-29T01:11:26.560Z,5.22
2024-01-29T01:12:26.648Z,5.36
2024-01-29T01:13:26.615Z,5.27
2024-01-29T01:14:26.632Z,5.31
2024-01-29T01:15:26.656Z,5.33
2024-01-29T01:16:26.654Z,5.35
2024-01-29T01:17:26.704Z,5.36
2024-01-29T01:18:26.759Z,5.33
2024-01-29T01:19:26.833Z,5.30
2024-01-29T01:20:26.725Z,5.21
2024-01-29T01:21:26.783Z,5.25
2024-01-29T01:22:26.771Z,5.22
2024-01-29T01:23:26.779Z,5.25
2024-01-29T01:24:26.836Z,5.22
2024-01-29T01:25:26.817Z,5.21
2024-01-29T01:26:26.835Z,5.27
2024-01-29T01:27:26.884Z,5.18
2024-01-29T01:28:26.943Z,5.13
2024-01-29T01:29:26.889Z,5.18
2024-01-29T01:30:26.928Z,5.24
2024-01-29T01:31:26.924Z,5.12
2024-01-29T01:32:27.047Z,5.15
2024-01-29T01:33:27.026Z,5.06
2024-01-29T01:34:27.138Z,5.06
2024-01-29T01:35:27.102Z,5.06
2024-01-29T01:36:27.117Z,5.09
2024-01-29T01:37:27.027Z,5.06
2024-01-29T01:38:27.077Z,5.12
2024-01-29T01:39:27.150Z,5.09
2024-01-29T01:40:27.163Z,5.09
2024-01-29T01:41:27.120Z,5.09
2024-01-29T01:42:27.260Z,5.13
2024-01-29T01:43:27.145Z,5.06
2024-01-29T01:44:27.234Z,5.12
2024-01-29T01:45:27.313Z,5.09
2024-01-29T01:46:27.444Z,5.10
2024-01-29T01:47:27.250Z,5.12
2024-01-29T01:48:27.442Z,5.10
2024-01-29T01:49:27.416Z,5.13
2024-01-29T01:50:27.255Z,5.10
2024-01-29T01:51:27.336Z,5.03
2024-01-29T01:52:27.296Z,5.10
2024-01-29T01:53:27.328Z,5.09
2024-01-29T01:54:27.448Z,5.15
2024-01-29T01:55:27.385Z,5.12
2024-01-29T01:56:27.381Z,5.15
2024-01-29T01:57:27.445Z,5.10
2024-01-29T01:58:27.405Z,5.07
2024-01-29T01:59:27.422Z,5.12
2024-01-29T02:00:27.478Z,5.17
2024-01-29T02:01:27.550Z,5.07
2024-01-29T02:02:27.516Z,5.04
2024-01-29T02:03:27.555Z,5.07
2024-01-29T02:04:27.629Z,5.09
2024-01-29T02:05:27.572Z,5.07
2024-01-29T02:06:27.598Z,5.04
2024-01-29T02:07:27.644Z,4.99
2024-01-29T02:08:27.584Z,5.02
2024-01-29T02:09:27.631Z,5.04
2024-01-29T02:10:27.616Z,5.00
2024-01-29T02:11:27.643Z,5.00
2024-01-29T02:12:27.704Z,4.94
2024-01-29T02:13:27.685Z,4.99
2024-01-29T02:14:27.717Z,5.00
2024-01-29T02:15:27.728Z,5.00
2024-01-29T02:16:27.739Z,4.91
2024-01-29T02:17:27.772Z,4.91
2024-01-29T02:18:27.841Z,4.89
2024-01-29T02:19:27.862Z,4.82
2024-01-29T02:20:27.803Z,4.77
2024-01-29T02:21:27.853Z,4.80
2024-01-29T02:22:27.847Z,4.82
2024-01-29T02:23:27.865Z,4.80
2024-01-29T02:24:27.923Z,4.70
2024-01-29T02:25:27.904Z,4.69
2024-01-29T02:26:27.902Z,4.60
2024-01-29T02:27:27.991Z,4.55
2024-01-29T02:28:27.938Z,4.59
2024-01-29T02:29:27.969Z,4.75
2024-01-29T02:30:28.018Z,4.65
2024-01-29T02:31:28.001Z,4.66
2024-01-29T02:32:28.007Z,4.55
2024-01-29T02:33:28.089Z,4.55
2024-01-29T02:34:28.267Z,4.54
2024-01-29T02:35:28.063Z,4.54
2024-01-29T02:36:28.113Z,4.63
2024-01-29T02:37:28.107Z,4.66
2024-01-29T02:38:28.115Z,4.65
2024-01-29T02:39:28.186Z,4.66
2024-01-29T02:40:28.157Z,4.54
2024-01-29T02:41:28.167Z,4.54
2024-01-29T02:42:28.207Z,4.60
2024-01-29T02:43:28.207Z,4.60
2024-01-29T02:44:28.258Z,4.58
2024-01-29T02:45:28.246Z,4.52
2024-01-29T02:46:28.256Z,4.47
2024-01-29T02:47:28.324Z,4.47
2024-01-29T02:48:28.366Z,4.45
2024-01-29T02:49:28.361Z,4.51
2024-01-29T02:50:28.327Z,4.51
2024-01-29T02:51:28.384Z,4.41
2024-01-29T02:52:28.364Z,4.41
2024-01-29T02:53:28.384Z,4.41
2024-01-29T02:54:28.411Z,4.42
2024-01-29T02:55:28.455Z,4.34
2024-01-29T02:56:28.442Z,4.36
2024-01-29T02:57:28.497Z,4.41
2024-01-29T02:58:28.467Z,4.44
2024-01-29T02:59:28.490Z,4.40
2024-01-29T03:00:28.601Z,4.32
2024-01-29T03:01:28.581Z,4.32
2024-01-29T03:02:28.541Z,4.34
2024-01-29T03:03:28.632Z,4.29
2024-01-29T03:04:28.665Z,4.32
2024-01-29T03:05:28.635Z,4.30
2024-01-29T03:06:28.646Z,4.36
2024-01-29T03:07:28.632Z,4.33
2024-01-29T03:08:28.644Z,4.32
2024-01-29T03:09:28.694Z,4.37
2024-01-29T03:10:28.684Z,4.40
2024-01-29T03:11:28.696Z,4.42
2024-01-29T03:12:28.729Z,4.45
2024-01-29T03:13:28.749Z,4.44
2024-01-29T03:14:28.754Z,4.40
2024-01-29T03:15:28.841Z,4.44
2024-01-29T03:16:28.785Z,4.41
2024-01-29T03:17:28.807Z,4.42
2024-01-29T03:18:28.927Z,4.32
2024-01-29T03:19:28.935Z,4.40
2024-01-29T03:20:28.864Z,4.36
2024-01-29T03:21:28.934Z,4.32
2024-01-29T03:22:28.891Z,4.32
2024-01-29T03:23:28.908Z,4.30
2024-01-29T03:24:28.936Z,4.27
2024-01-29T03:25:28.949Z,4.26
2024-01-29T03:26:28.961Z,4.30
2024-01-29T03:27:29.004Z,4.18
2024-01-29T03:28:29.010Z,4.15
2024-01-29T03:29:29.025Z,4.18
2024-01-29T03:30:29.058Z,4.16
2024-01-29T03:31:29.063Z,4.15
2024-01-29T03:32:29.091Z,4.06
2024-01-29T03:33:29.180Z,4.15
2024-01-29T03:34:29.174Z,4.09
2024-01-29T03:35:29.131Z,4.04
2024-01-29T03:36:29.159Z,4.09
2024-01-29T03:37:29.155Z,4.05
2024-01-29T03:38:29.179Z,4.09
2024-01-29T03:39:29.200Z,4.06
2024-01-29T03:40:29.208Z,4.09
2024-01-29T03:41:29.225Z,4.06
2024-01-29T03:42:29.258Z,4.12
2024-01-29T03:43:29.256Z,4.09
2024-01-29T03:44:29.279Z,4.12
2024-01-29T03:45:29.365Z,4.15
2024-01-29T03:46:29.321Z,4.09
2024-01-29T03:47:29.334Z,4.11
2024-01-29T03:48:29.415Z,4.09
2024-01-29T03:49:29.406Z,3.98
2024-01-29T03:50:29.466Z,4.04
2024-01-29T03:51:29.425Z,3.98
2024-01-29T03:52:29.418Z,3.98
2024-01-29T03:53:29.431Z,4.02
2024-01-29T03:54:29.533Z,3.94
2024-01-29T03:55:29.531Z,4.05
2024-01-29T03:56:29.487Z,3.96
2024-01-29T03:57:29.528Z,4.12
2024-01-29T03:58:29.511Z,4.04
2024-01-29T03:59:29.542Z,4.14
2024-01-29T04:00:29.607Z,4.14
2024-01-29T04:01:29.834Z,4.12
2024-01-29T04:02:29.585Z,4.20
2024-01-29T04:03:29.725Z,4.20
2024-01-29T04:04:29.735Z,4.20
2024-01-29T04:05:29.710Z,4.30
2024-01-29T04:06:29.785Z,4.27
2024-01-29T04:07:29.735Z,4.27
2024-01-29T04:08:29.693Z,4.34
2024-01-29T04:09:29.763Z,4.33
2024-01-29T04:10:29.728Z,4.37
2024-01-29T04:11:29.748Z,4.44
2024-01-29T04:12:29.796Z,4.42
2024-01-29T04:13:29.776Z,4.45
2024-01-29T04:14:29.813Z,4.52
2024-01-29T04:15:29.821Z,4.52
2024-01-29T04:16:29.829Z,4.48
2024-01-29T04:17:29.875Z,4.45
2024-01-29T04:18:30.004Z,4.50
2024-01-29T04:19:29.954Z,4.51
2024-01-29T04:20:29.904Z,4.50
2024-01-29T04:21:29.952Z,4.52
2024-01-29T04:22:29.950Z,4.55
2024-01-29T04:23:29.948Z,4.60
2024-01-29T04:24:37.190Z,4.58
2024-01-29T04:26:33.979Z,4.54
2024-01-29T04:27:33.994Z,4.54
2024-01-29T04:29:37.970Z,4.54
2024-01-29T04:30:38.001Z,4.58
2024-01-29T04:32:42.032Z,4.60
2024-01-29T04:33:42.017Z,4.59
2024-01-29T04:35:46.010Z,4.47
2024-01-29T04:36:46.041Z,4.40
2024-01-29T04:38:50.004Z,4.30
2024-01-29T04:39:50.034Z,4.24
2024-01-29T04:41:54.083Z,4.30
2024-01-29T04:42:54.024Z,4.22
2024-01-29T04:44:58.031Z,4.18
2024-01-29T04:45:58.068Z,4.20
2024-01-29T04:47:51.484Z,4.20
2024-01-29T04:48:51.534Z,4.11
2024-01-29T04:49:51.520Z,4.12
2024-01-29T04:50:51.536Z,4.16
2024-01-29T04:51:51.539Z,4.08
2024-01-29T04:52:51.532Z,4.09
2024-01-29T04:53:51.542Z,4.08
2024-01-29T04:54:51.623Z,4.02
2024-01-29T04:55:51.573Z,3.97
2024-01-29T04:56:51.598Z,4.02
2024-01-29T04:57:51.666Z,3.98
2024-01-29T04:58:51.640Z,4.12
2024-01-29T04:59:51.643Z,4.05
2024-01-29T05:00:51.756Z,4.09
2024-01-29T05:01:51.762Z,4.04
2024-01-29T05:02:51.697Z,4.05
2024-01-29T05:03:51.816Z,4.14
2024-01-29T05:04:51.768Z,4.12
2024-01-29T05:05:51.831Z,4.05
2024-01-29T05:06:51.797Z,4.02
2024-01-29T05:07:51.781Z,4.06
2024-01-29T05:08:51.819Z,4.09
2024-01-29T05:09:51.858Z,4.08
2024-01-29T05:10:51.843Z,4.12
2024-01-29T05:11:51.855Z,4.09
2024-01-29T05:12:51.928Z,4.11
2024-01-29T05:13:51.893Z,4.09
2024-01-29T05:14:51.906Z,4.08
2024-01-29T05:15:51.971Z,4.11
2024-01-29T05:16:51.948Z,4.06
2024-01-29T05:17:52.024Z,4.15
2024-01-29T05:18:52.099Z,4.12
2024-01-29T05:19:52.123Z,4.14
2024-01-29T05:20:52.010Z,4.06
2024-01-29T05:21:52.066Z,4.15
2024-01-29T05:22:52.059Z,4.09
2024-01-29T05:23:52.060Z,4.05
2024-01-29T05:24:52.132Z,4.12
2024-01-29T05:25:52.102Z,4.08
2024-01-29T05:26:52.136Z,4.16
2024-01-29T05:27:52.156Z,4.12
2024-01-29T05:28:52.173Z,4.12
2024-01-29T05:29:52.167Z,4.06
2024-01-29T05:30:52.252Z,4.08
2024-01-29T05:31:52.202Z,4.09
2024-01-29T05:32:52.272Z,4.11
2024-01-29T05:33:52.324Z,4.14
2024-01-29T05:34:52.312Z,4.09
2024-01-29T05:35:52.276Z,4.14
2024-01-29T05:36:52.315Z,4.11
2024-01-29T05:37:52.307Z,4.12
2024-01-29T05:38:52.321Z,4.12
2024-01-29T05:39:52.379Z,4.14
2024-01-29T05:40:52.371Z,4.12
2024-01-29T05:41:52.378Z,4.06
2024-01-29T05:42:52.443Z,3.97
2024-01-29T05:43:52.410Z,4.11
2024-01-29T05:44:52.426Z,3.98
2024-01-29T05:45:52.468Z,4.11
2024-01-29T05:46:52.464Z,4.05
2024-01-29T05:47:52.721Z,3.97
2024-01-29T05:48:52.670Z,4.05
2024-01-29T05:49:52.645Z,3.96
2024-01-29T05:50:54.770Z,4.06
2024-01-29T05:51:52.576Z,3.96
2024-01-29T05:52:52.561Z,4.02
2024-01-29T05:53:52.583Z,4.00
2024-01-29T05:54:52.633Z,3.94
2024-01-29T05:55:52.614Z,3.96
2024-01-29T05:56:52.637Z,3.94
2024-01-29T05:57:52.697Z,3.96
2024-01-29T05:58:52.666Z,3.86
2024-01-29T05:59:52.681Z,3.97
2024-01-29T06:00:52.838Z,3.93
2024-01-29T06:01:52.841Z,3.90
2024-01-29T06:02:52.794Z,3.86
2024-01-29T06:03:52.814Z,3.88
2024-01-29T06:04:52.798Z,3.86
2024-01-29T06:05:52.852Z,3.90
2024-01-29T06:06:52.964Z,3.91
2024-01-29T06:07:52.888Z,3.84
2024-01-29T06:08:52.843Z,3.86
2024-01-29T06:09:52.898Z,3.87
2024-01-29T06:10:52.872Z,3.86
2024-01-29T06:11:52.888Z,3.84
2024-01-29T06:12:52.957Z,3.83
2024-01-29T06:13:52.936Z,3.87
2024-01-29T06:14:52.951Z,3.80
2024-01-29T06:15:52.987Z,3.78
2024-01-29T06:16:52.986Z,3.80
2024-01-29T06:17:53.137Z,3.76
2024-01-29T06:18:53.267Z,3.70
2024-01-29T06:20:03.997Z,3.80
2024-01-29T06:20:53.130Z,3.70
2024-01-29T06:21:53.086Z,3.72
2024-01-29T06:22:53.077Z,3.72
2024-01-29T06:23:53.096Z,3.72
2024-01-29T06:24:53.137Z,3.69
2024-01-29T06:25:53.156Z,3.70
2024-01-29T06:26:53.165Z,3.79
2024-01-29T06:27:53.275Z,3.84
2024-01-29T06:28:53.188Z,3.79
2024-01-29T06:29:53.203Z,3.87
2024-01-29T06:30:53.248Z,3.78
2024-01-29T06:31:53.234Z,3.79
2024-01-29T06:32:53.307Z,3.79
2024-01-29T06:33:54.438Z,3.73
2024-01-29T06:34:53.383Z,3.73
2024-01-29T06:35:53.317Z,3.70
2024-01-29T06:36:53.365Z,3.72
2024-01-29T06:37:53.336Z,3.75
2024-01-29T06:38:53.362Z,3.70
2024-01-29T06:39:53.426Z,3.72
2024-01-29T06:40:53.390Z,3.75
2024-01-29T06:41:53.404Z,3.80
2024-01-29T06:42:53.458Z,3.75
2024-01-29T06:43:53.441Z,3.73
2024-01-29T06:44:53.457Z,3.75
2024-01-29T06:45:53.500Z,3.69
2024-01-29T06:46:53.490Z,3.69
2024-01-29T06:47:53.532Z,3.65
2024-01-29T06:48:53.610Z,3.52
2024-01-29T06:49:53.669Z,3.47
2024-01-29T06:50:53.587Z,3.47
2024-01-29T06:51:53.571Z,3.51
2024-01-29T06:52:53.612Z,3.61
2024-01-29T06:53:53.635Z,3.51
2024-01-29T06:54:53.676Z,3.48
2024-01-29T06:55:53.675Z,3.51
2024-01-29T06:56:53.666Z,3.52
2024-01-29T06:57:53.696Z,3.55
2024-01-29T06:58:53.697Z,3.54
2024-01-29T06:59:53.712Z,3.52
2024-01-29T07:00:53.856Z,3.50
2024-01-29T07:01:53.773Z,3.42
2024-01-29T07:02:53.834Z,3.42
2024-01-29T07:03:53.907Z,3.48
2024-01-29T07:04:53.801Z,3.31
2024-01-29T07:05:53.862Z,3.31
2024-01-29T07:06:53.911Z,3.32
2024-01-29T07:07:53.850Z,3.23
2024-01-29T07:08:53.875Z,3.26
2024-01-29T07:09:53.913Z,3.24
2024-01-29T07:10:53.901Z,3.18
2024-01-29T07:11:53.924Z,3.15
2024-01-29T07:12:53.955Z,3.21
2024-01-29T07:13:53.951Z,3.14
2024-01-29T07:14:53.965Z,3.17
2024-01-29T07:15:54.052Z,3.17
2024-01-29T07:16:53.995Z,3.18
2024-01-29T07:17:54.033Z,3.15
2024-01-29T07:18:54.068Z,3.20
2024-01-29T07:19:54.536Z,3.15
2024-01-29T07:20:54.071Z,3.17
2024-01-29T07:21:54.145Z,3.17
2024-01-29T07:22:54.103Z,3.24
2024-01-29T07:23:54.123Z,3.28
2024-01-29T07:24:54.183Z,3.29
2024-01-29T07:25:54.171Z,3.17
2024-01-29T07:26:54.169Z,3.29
2024-01-29T07:27:54.222Z,3.24
2024-01-29T07:28:54.203Z,3.23
2024-01-29T07:29:54.221Z,3.26
2024-01-29T07:30:54.289Z,3.24
2024-01-29T07:31:54.438Z,3.31
2024-01-29T07:32:54.342Z,3.31
2024-01-29T07:33:54.441Z,3.29
2024-01-29T07:34:54.350Z,3.33
2024-01-29T07:35:54.347Z,3.31
2024-01-29T07:36:54.361Z,3.28
2024-01-29T07:37:54.394Z,3.31
2024-01-29T07:38:54.378Z,3.29
2024-01-29T07:39:54.404Z,3.28
2024-01-29T07:40:54.411Z,3.28
2024-01-29T07:41:54.428Z,3.26
2024-01-29T07:42:54.461Z,3.42
2024-01-29T07:43:54.494Z,3.36
2024-01-29T07:44:54.474Z,3.47
2024-01-29T07:45:54.522Z,3.45
2024-01-29T07:46:54.507Z,3.40
2024-01-29T07:47:54.587Z,3.40
2024-01-29T07:48:54.625Z,3.43
2024-01-29T07:49:54.578Z,3.55
2024-01-29T07:50:54.589Z,3.57
2024-01-29T07:51:54.650Z,3.51
2024-01-29T07:52:54.609Z,3.52
2024-01-29T07:53:54.625Z,3.45
2024-01-29T07:54:54.698Z,3.51
2024-01-29T07:55:54.670Z,3.50
2024-01-29T07:56:54.679Z,3.52
2024-01-29T07:57:54.727Z,3.50
2024-01-29T07:58:54.708Z,3.54
2024-01-29T07:59:54.727Z,3.58
2024-01-29T08:00:54.847Z,3.58
2024-01-29T08:01:54.848Z,3.72
2024-01-29T08:02:54.808Z,3.78
2024-01-29T08:03:54.825Z,3.70
2024-01-29T08:04:54.952Z,3.83
2024-01-29T08:05:54.840Z,3.83
2024-01-29T08:06:54.861Z,3.80
2024-01-29T08:07:54.860Z,3.86
2024-01-29T08:08:54.877Z,3.90
2024-01-29T08:09:54.945Z,3.93
2024-01-29T08:10:54.918Z,3.96
2024-01-29T08:11:54.939Z,4.00
2024-01-29T08:12:54.988Z,4.02
2024-01-29T08:13:55.009Z,4.08
2024-01-29T08:14:55.047Z,4.04
2024-01-29T08:15:55.054Z,4.08
2024-01-29T08:16:55.018Z,3.97
2024-01-29T08:17:55.171Z,4.15
2024-01-29T08:18:55.240Z,4.12
2024-01-29T08:19:55.267Z,4.12
2024-01-29T08:20:55.127Z,4.20
2024-01-29T08:21:55.178Z,4.20
2024-01-29T08:22:55.132Z,4.22
2024-01-29T08:23:55.138Z,4.12
2024-01-29T08:24:55.202Z,4.24
2024-01-29T08:25:55.173Z,4.29
2024-01-29T08:26:55.188Z,4.30
2024-01-29T08:27:55.238Z,4.30
2024-01-29T08:28:55.222Z,4.42
2024-01-29T08:29:55.237Z,4.47
2024-01-29T08:30:55.271Z,4.55
2024-01-29T08:31:55.278Z,4.60
2024-01-29T08:32:55.320Z,4.55
2024-01-29T08:33:55.344Z,4.67
2024-01-29T08:34:55.427Z,4.72
2024-01-29T08:35:55.353Z,4.85
2024-01-29T08:36:55.375Z,4.82
2024-01-29T08:37:55.393Z,4.91
2024-01-29T08:38:55.394Z,4.99
2024-01-29T08:39:55.454Z,5.02
2024-01-29T08:40:55.431Z,5.09
2024-01-29T08:41:55.455Z,5.10
2024-01-29T08:42:55.492Z,5.10
2024-01-29T08:43:55.517Z,5.28
2024-01-29T08:44:55.501Z,5.38
2024-01-29T08:45:55.528Z,5.40
2024-01-29T08:46:55.536Z,5.42
2024-01-29T08:47:55.642Z,5.45
2024-01-29T08:48:55.600Z,5.53
2024-01-29T08:49:55.647Z,5.56
2024-01-29T08:50:55.625Z,5.65
2024-01-29T08:51:55.672Z,5.72
2024-01-29T08:52:55.658Z,5.82
2024-01-29T08:53:55.669Z,5.76
2024-01-29T08:54:55.686Z,5.76
2024-01-29T08:55:56.469Z,5.85
2024-01-29T08:56:55.720Z,5.91
2024-01-29T08:57:55.770Z,6.00
2024-01-29T08:58:55.781Z,6.01
2024-01-29T08:59:55.770Z,6.03
2024-01-29T09:00:56.341Z,6.18
2024-01-29T09:01:55.951Z,6.15
2024-01-29T09:02:55.826Z,6.18
2024-01-29T09:03:55.979Z,6.19
2024-01-29T09:04:55.947Z,6.30
2024-01-29T09:05:55.920Z,6.38
2024-01-29T09:06:55.970Z,6.34
2024-01-29T09:07:57.279Z,6.36
2024-01-29T09:08:55.944Z,6.44
2024-01-29T09:09:55.979Z,6.54
2024-01-29T09:10:55.974Z,6.52
2024-01-29T09:11:56.008Z,6.59
2024-01-29T09:12:56.054Z,6.61
2024-01-29T09:13:56.039Z,6.67
2024-01-29T09:14:56.074Z,6.80
2024-01-29T09:15:56.202Z,6.84
2024-01-29T09:16:56.103Z,6.80
2024-01-29T09:17:56.143Z,6.95
2024-01-29T09:18:56.283Z,6.95
2024-01-29T09:19:56.288Z,7.03
2024-01-29T09:20:56.227Z,7.07
2024-01-29T09:21:56.271Z,7.06
2024-01-29T09:22:56.211Z,7.07
2024-01-29T09:23:56.280Z,7.07
2024-01-29T09:24:56.291Z,7.15
2024-01-29T09:25:56.272Z,7.10
2024-01-29T09:26:56.279Z,7.25
2024-01-29T09:27:56.382Z,7.31
2024-01-29T09:28:56.403Z,7.40
2024-01-29T09:29:56.446Z,7.39
2024-01-29T09:30:56.417Z,7.49
2024-01-29T09:31:56.516Z,7.52
2024-01-29T09:33:06.336Z,7.55
2024-01-29T09:33:56.744Z,7.63
2024-01-29T09:34:56.589Z,7.72
2024-01-29T09:35:56.470Z,7.64
2024-01-29T09:36:56.525Z,7.77
2024-01-29T09:37:56.488Z,7.77
2024-01-29T09:38:56.505Z,7.79
2024-01-29T09:39:56.577Z,7.86
2024-01-29T09:40:56.560Z,7.93
2024-01-29T09:41:56.572Z,8.00
2024-01-29T09:42:56.623Z,8.01
2024-01-29T09:43:56.613Z,8.10
2024-01-29T09:44:56.627Z,8.08
2024-01-29T09:45:56.731Z,8.18
2024-01-29T09:46:56.665Z,8.12
2024-01-29T09:47:56.840Z,8.16
2024-01-29T09:48:56.877Z,8.19
2024-01-29T09:49:56.800Z,8.12
2024-01-29T09:50:56.760Z,8.22
2024-01-29T09:51:56.846Z,8.18
2024-01-29T09:52:59.028Z,8.26
2024-01-29T09:53:56.797Z,8.20
2024-01-29T09:54:56.842Z,8.23
2024-01-29T09:55:56.846Z,8.22
2024-01-29T09:56:56.859Z,8.19
2024-01-29T09:57:56.932Z,8.33
2024-01-29T09:58:56.903Z,8.34
2024-01-29T09:59:56.929Z,8.34
2024-01-29T10:00:57.028Z,8.34
2024-01-29T10:01:57.160Z,8.34
2024-01-29T10:02:57.014Z,8.43
2024-01-29T10:03:57.050Z,8.40
2024-01-29T10:04:57.089Z,8.47
2024-01-29T10:05:57.046Z,8.52
2024-01-29T10:06:57.174Z,8.52
2024-01-29T10:07:57.204Z,8.63
2024-01-29T10:08:57.107Z,8.63
2024-01-29T10:09:57.171Z,8.68
2024-01-29T10:10:57.148Z,8.71
2024-01-29T10:11:57.156Z,8.66
2024-01-29T10:12:57.184Z,8.65
2024-01-29T10:13:57.199Z,8.65
2024-01-29T10:14:57.379Z,8.81
2024-01-29T10:15:57.302Z,8.81
2024-01-29T10:16:57.255Z,8.91
2024-01-29T10:17:57.295Z,8.89
2024-01-29T10:18:57.366Z,8.95
2024-01-29T10:19:57.486Z,8.95
2024-01-29T10:20:57.359Z,9.13
2024-01-29T10:21:57.384Z,9.11
2024-01-29T10:22:57.387Z,9.17
2024-01-29T10:23:57.424Z,9.11
2024-01-29T10:24:57.491Z,9.20
2024-01-29T10:25:57.435Z,9.20
2024-01-29T10:26:57.468Z,9.21
2024-01-29T10:27:57.504Z,9.31
2024-01-29T10:28:57.503Z,9.35
2024-01-29T10:29:57.524Z,9.36
2024-01-29T10:30:58.729Z,9.42
2024-01-29T10:31:57.558Z,9.47
2024-01-29T10:32:57.626Z,9.43
2024-01-29T10:33:57.782Z,9.57
2024-01-29T10:34:57.763Z,9.51
2024-01-29T10:35:57.716Z,9.53
2024-01-29T10:36:57.715Z,9.51
2024-01-29T10:37:57.683Z,9.53
2024-01-29T10:38:57.702Z,9.61
2024-01-29T10:40:00.321Z,9.64
2024-01-29T10:40:57.743Z,9.64
2024-01-29T10:41:57.760Z,9.69
2024-01-29T10:42:57.823Z,9.75
2024-01-29T10:43:57.820Z,9.78
2024-01-29T10:44:57.826Z,9.79
2024-01-29T10:45:57.861Z,9.86
2024-01-29T10:46:57.887Z,9.84
2024-01-29T10:47:58.597Z,9.94
2024-01-29T10:48:57.986Z,10.01
2024-01-29T10:49:58.100Z,9.96
2024-01-29T10:50:57.954Z,10.12
2024-01-29T10:51:58.006Z,10.02
2024-01-29T10:52:57.998Z,10.15
2024-01-29T10:53:58.025Z,10.23
2024-01-29T10:54:58.097Z,10.18
2024-01-29T10:55:58.098Z,10.30
2024-01-29T10:56:58.078Z,10.30
2024-01-29T10:57:58.173Z,10.29
2024-01-29T10:59:00.713Z,10.34
2024-01-29T10:59:58.155Z,10.41
2024-01-29T11:00:58.257Z,10.48
2024-01-29T11:02:03.826Z,10.59
2024-01-29T11:02:58.202Z,10.52
2024-01-29T11:03:58.242Z,10.56
2024-01-29T11:04:58.359Z,10.56
2024-01-29T11:05:58.302Z,10.66
2024-01-29T11:06:58.331Z,10.63
2024-01-29T11:07:58.300Z,10.63
2024-01-29T11:08:58.324Z,10.76
2024-01-29T11:09:58.373Z,10.81
2024-01-29T11:10:59.758Z,10.76
2024-01-29T11:11:58.389Z,10.86
2024-01-29T11:12:58.440Z,10.84
2024-01-29T11:13:58.496Z,10.88
2024-01-29T11:14:58.450Z,10.94
2024-01-29T11:15:58.492Z,10.97
2024-01-29T11:16:58.514Z,11.06
2024-01-29T11:17:58.544Z,11.03
2024-01-29T11:18:58.566Z,11.07
2024-01-29T11:19:58.632Z,11.17
2024-01-29T11:20:58.583Z,11.11
2024-01-29T11:21:58.635Z,11.22
2024-01-29T11:22:58.675Z,11.28
2024-01-29T11:23:58.646Z,11.29
2024-01-29T11:24:58.692Z,11.40
2024-01-29T11:25:58.686Z,11.35
2024-01-29T11:26:58.708Z,11.35
2024-01-29T11:27:58.847Z,11.43
2024-01-29T11:28:58.770Z,11.44
2024-01-29T11:29:58.769Z,11.46
2024-01-29T11:30:58.854Z,11.42
2024-01-29T11:31:58.815Z,11.52
2024-01-29T11:32:58.891Z,11.55
2024-01-29T11:33:58.978Z,11.54
2024-01-29T11:34:59.025Z,11.62
2024-01-29T11:35:58.895Z,11.75
2024-01-29T11:36:58.932Z,11.72
2024-01-29T11:37:58.943Z,11.76
2024-01-29T11:38:58.969Z,11.72
2024-01-29T11:39:59.009Z,11.82
2024-01-29T11:40:59.011Z,11.90
2024-01-29T11:41:59.034Z,11.88
2024-01-29T11:42:59.061Z,11.86
2024-01-29T11:43:59.078Z,11.91
2024-01-29T11:44:59.093Z,11.88
2024-01-29T11:45:59.262Z,11.99
2024-01-29T11:46:59.161Z,11.94
2024-01-29T11:47:59.277Z,11.98
2024-01-29T11:48:59.286Z,11.99
2024-01-29T11:49:59.293Z,12.01
2024-01-29T11:50:59.224Z,12.07
2024-01-29T11:51:59.259Z,12.16
2024-01-29T11:53:05.089Z,12.07
2024-01-29T11:53:59.283Z,12.14
2024-01-29T11:54:59.321Z,12.17
2024-01-29T11:55:59.382Z,12.24
2024-01-29T11:56:59.357Z,12.14
2024-01-29T11:57:59.505Z,12.29
2024-01-29T11:58:59.398Z,12.29
2024-01-29T11:59:59.442Z,12.20
2024-01-29T12:00:59.560Z,12.34
2024-01-29T12:01:59.503Z,12.32
2024-01-29T12:02:59.494Z,12.29
2024-01-29T12:03:59.533Z,12.32
2024-01-29T12:04:59.553Z,12.35
2024-01-29T12:05:59.545Z,12.45
2024-01-29T12:07:01.624Z,12.45
2024-01-29T12:07:59.700Z,12.46
2024-01-29T12:08:59.613Z,12.50
2024-01-29T12:09:59.754Z,12.53
2024-01-29T12:10:59.663Z,12.53
2024-01-29T12:11:59.681Z,12.56
2024-01-29T12:12:59.779Z,12.60
2024-01-29T12:13:59.734Z,12.62
2024-01-29T12:14:59.755Z,12.59
2024-01-29T12:15:59.869Z,12.68
2024-01-29T12:16:59.789Z,12.62
2024-01-29T12:17:59.819Z,12.65
2024-01-29T12:18:59.874Z,12.78
2024-01-29T12:19:59.854Z,12.74
2024-01-29T12:20:59.945Z,12.78
2024-01-29T12:21:59.922Z,12.85
2024-01-29T12:22:59.942Z,12.87
2024-01-29T12:23:59.965Z,12.93
2024-01-29T12:24:59.982Z,12.89
2024-01-29T12:26:00.074Z,12.97
2024-01-29T12:27:00.009Z,12.93
2024-01-29T12:28:00.090Z,13.05
2024-01-29T12:29:00.888Z,13.08
2024-01-29T12:30:00.095Z,13.04
2024-01-29T12:31:00.591Z,13.03
2024-01-29T12:32:00.255Z,13.03
2024-01-29T12:33:00.218Z,13.03
2024-01-29T12:34:00.293Z,13.07
2024-01-29T12:35:00.338Z,13.10
2024-01-29T12:36:00.208Z,13.00
2024-01-29T12:37:00.286Z,13.00
2024-01-29T12:38:00.251Z,13.04
2024-01-29T12:39:00.294Z,13.07
2024-01-29T12:40:00.527Z,13.05
2024-01-29T12:41:00.316Z,13.03
2024-01-29T12:42:00.350Z,13.17
2024-01-29T12:43:00.387Z,13.25
2024-01-29T12:44:00.384Z,13.12
2024-01-29T12:45:00.407Z,13.25
2024-01-29T12:46:00.488Z,13.20
2024-01-29T12:47:00.453Z,13.15
2024-01-29T12:48:00.699Z,13.22
2024-01-29T12:49:00.618Z,13.26
2024-01-29T12:50:00.660Z,13.30
2024-01-29T12:51:00.577Z,13.28
2024-01-29T12:52:00.742Z,13.29
2024-01-29T12:53:00.584Z,13.36
2024-01-29T12:54:00.612Z,13.41
2024-01-29T12:55:00.726Z,13.38
2024-01-29T12:56:00.656Z,13.59
2024-01-29T12:57:00.682Z,13.57
2024-01-29T12:58:00.816Z,13.57
2024-01-29T12:59:00.732Z,13.69
2024-01-29T13:00:00.822Z,13.63
2024-01-29T13:01:00.874Z,13.62
2024-01-29T13:02:00.807Z,13.69
2024-01-29T13:03:02.947Z,13.66
2024-01-29T13:04:01.013Z,13.70
2024-01-29T13:05:01.049Z,13.71
2024-01-29T13:06:01.151Z,13.75
2024-01-29T13:07:00.948Z,13.82
2024-01-29T13:08:00.929Z,13.66
2024-01-29T13:09:00.941Z,13.64
2024-01-29T13:10:01.026Z,13.66
2024-01-29T13:11:00.993Z,13.60
2024-01-29T13:12:01.026Z,13.66
2024-01-29T13:13:01.152Z,13.67
2024-01-29T13:14:01.277Z,13.60
2024-01-29T13:15:01.095Z,13.75
2024-01-29T13:16:01.146Z,13.71
2024-01-29T13:17:01.133Z,13.77
2024-01-29T13:18:01.180Z,13.77
2024-01-29T13:19:01.325Z,13.79
2024-01-29T13:20:01.613Z,13.77
2024-01-29T13:21:01.219Z,13.81
2024-01-29T13:22:01.268Z,13.75